createdAt,value
2022-08-02T00:00:59.565Z,2.13
2022-08-02T00:03:26.249Z,2.20
2022-08-02T00:05:54.033Z,2.57
2022-08-02T00:08:21.852Z,2.30
2022-08-02T00:10:48.780Z,2.10
2022-08-02T00:13:16.074Z,2.57
2022-08-02T00:15:43.044Z,2.30
2022-08-02T00:18:09.913Z,2.20
2022-08-02T00:20:36.754Z,2.40
2022-08-02T00:23:03.565Z,2.30
2022-08-02T00:25:33.774Z,2.40
2022-08-02T00:28:00.434Z,2.40
2022-08-02T00:30:27.172Z,2.10
2022-08-02T00:32:53.868Z,2.70
2022-08-02T00:35:21.080Z,2.30
2022-08-02T00:37:47.727Z,2.47
2022-08-02T00:40:16.037Z,2.20
2022-08-02T00:42:44.304Z,2.40
2022-08-02T00:45:11.091Z,2.40
2022-08-02T00:47:37.878Z,2.20
2022-08-02T00:50:04.900Z,2.50
2022-08-02T00:52:31.694Z,2.40
2022-08-02T00:54:58.357Z,2.70
2022-08-02T00:57:25.055Z,2.37
2022-08-02T00:59:51.721Z,2.40
2022-08-02T01:02:18.443Z,2.50
2022-08-02T01:04:45.435Z,2.60
2022-08-02T01:07:13.910Z,2.60
2022-08-02T01:09:42.388Z,2.30
2022-08-02T01:12:09.655Z,2.77
2022-08-02T01:14:37.281Z,2.60
2022-08-02T01:17:24.162Z,2.57
2022-08-02T01:20:16.422Z,2.87
2022-08-02T01:23:04.538Z,2.63
2022-08-02T01:25:50.820Z,2.80
2022-08-02T01:28:48.336Z,2.60
2022-08-02T01:31:43.124Z,2.93
2022-08-02T01:34:33.510Z,2.60
2022-08-02T01:37:21.831Z,3.17
2022-08-02T01:39:58.159Z,3.10
2022-08-02T01:42:26.068Z,2.83
2022-08-02T01:44:54.268Z,2.80
2022-08-02T01:47:31.627Z,2.70
2022-08-02T01:50:00.921Z,2.90
2022-08-02T01:52:30.772Z,2.70
2022-08-02T01:55:03.614Z,2.67
2022-08-02T01:57:51.038Z,2.87
2022-08-02T02:00:19.994Z,2.70
2022-08-02T02:02:48.450Z,2.60
2022-08-02T02:05:18.573Z,2.67
2022-08-02T02:07:47.550Z,2.83
2022-08-02T02:10:20.170Z,2.77
2022-08-02T02:12:50.015Z,2.90
2022-08-02T02:15:17.689Z,2.80
2022-08-02T02:18:10.497Z,2.90
2022-08-02T02:20:33.001Z,2.63
2022-08-02T02:22:59.752Z,2.90
2022-08-02T02:25:35.916Z,2.67
2022-08-02T02:28:13.407Z,2.97
2022-08-02T02:30:42.728Z,3.00
2022-08-02T02:33:10.542Z,2.80
2022-08-02T02:35:38.788Z,2.67
2022-08-02T02:38:11.737Z,2.90
2022-08-02T02:40:39.573Z,2.80
2022-08-02T02:43:06.618Z,2.70
2022-08-02T02:45:35.435Z,2.70
2022-08-02T02:48:02.701Z,3.00
2022-08-02T02:50:30.595Z,2.87
2022-08-02T02:52:57.496Z,2.90
2022-08-02T02:55:24.622Z,3.00
2022-08-02T02:57:52.149Z,2.87
2022-08-02T03:00:38.846Z,2.97
2022-08-02T03:03:06.673Z,2.90
2022-08-02T03:05:33.548Z,2.90
2022-08-02T03:08:03.429Z,2.97
2022-08-02T03:10:30.141Z,2.90
2022-08-02T03:12:58.602Z,2.87
2022-08-02T03:15:27.676Z,2.87
2022-08-02T03:17:54.475Z,3.23
2022-08-02T03:20:22.823Z,2.70
2022-08-02T03:22:50.073Z,3.33
2022-08-02T03:25:17.777Z,3.40
2022-08-02T03:27:44.838Z,3.40
2022-08-02T03:30:12.689Z,2.93
2022-08-02T03:32:41.351Z,2.80
2022-08-02T03:35:10.713Z,3.00
2022-08-02T03:37:37.848Z,3.10
2022-08-02T03:40:07.957Z,3.30
2022-08-02T03:42:34.586Z,3.03
2022-08-02T03:45:08.597Z,3.30
2022-08-02T03:47:36.482Z,3.30
2022-08-02T03:50:03.243Z,3.17
2022-08-02T03:52:31.741Z,3.50
2022-08-02T03:54:58.393Z,3.43
2022-08-02T03:57:25.114Z,3.23
2022-08-02T03:59:51.765Z,3.23
2022-08-02T04:02:18.483Z,3.60
2022-08-02T04:04:45.198Z,3.13
2022-08-02T04:07:11.958Z,3.60
2022-08-02T04:09:38.683Z,3.50
2022-08-02T04:12:05.663Z,3.70
2022-08-02T04:14:35.527Z,3.90
2022-08-02T04:17:07.856Z,4.23
2022-08-02T04:19:39.731Z,4.20
2022-08-02T04:22:09.211Z,3.40
2022-08-02T04:24:40.299Z,4.00
2022-08-02T04:27:48.999Z,4.50
2022-08-02T04:29:54.874Z,4.40
2022-08-02T04:32:22.444Z,4.10
2022-08-02T04:37:37.531Z,4.50
2022-08-02T04:40:08.913Z,4.20
2022-08-02T04:42:35.632Z,4.10
2022-08-02T04:45:03.326Z,4.20
2022-08-02T04:48:02.227Z,3.93
2022-08-02T04:50:17.112Z,4.50
2022-08-02T04:52:45.912Z,4.53
2022-08-02T04:55:12.728Z,4.33
2022-08-02T04:57:58.139Z,4.37
2022-08-02T05:00:26.939Z,4.43
2022-08-02T05:02:55.893Z,4.60
2022-08-02T05:05:22.802Z,4.40
2022-08-02T05:07:49.462Z,4.60
2022-08-02T05:10:16.190Z,4.67
2022-08-02T05:12:43.005Z,4.37
2022-08-02T05:15:12.585Z,5.67
2022-08-02T05:17:47.520Z,5.00
2022-08-02T05:20:16.394Z,5.27
2022-08-02T05:22:43.077Z,5.00
2022-08-02T05:25:10.541Z,5.13
2022-08-02T05:27:37.316Z,5.60
2022-08-02T05:30:05.410Z,5.23
2022-08-02T05:32:32.324Z,5.03
2022-08-02T05:35:00.868Z,5.30
2022-08-02T05:37:27.570Z,5.77
2022-08-02T05:39:59.186Z,5.40
2022-08-02T05:42:31.201Z,5.73
2022-08-02T05:44:57.879Z,5.57
2022-08-02T05:47:24.625Z,5.63
2022-08-02T05:49:51.276Z,5.40
2022-08-02T05:52:19.538Z,5.67
2022-08-02T05:54:58.565Z,5.50
2022-08-02T05:57:59.233Z,6.17
2022-08-02T06:00:26.449Z,6.00
2022-08-02T06:03:19.721Z,6.17
2022-08-02T06:06:23.513Z,5.77
2022-08-02T06:08:59.775Z,6.40
2022-08-02T06:11:37.044Z,5.80
2022-08-02T06:14:05.709Z,6.67
2022-08-02T06:16:33.057Z,5.77
2022-08-02T06:19:09.446Z,6.17
2022-08-02T06:22:31.641Z,5.83
2022-08-02T06:24:24.197Z,6.50
2022-08-02T06:26:55.129Z,6.57
2022-08-02T06:29:23.121Z,6.20
2022-08-02T06:31:53.145Z,6.33
2022-08-02T06:34:19.785Z,6.70
2022-08-02T06:36:54.623Z,6.80
2022-08-02T06:39:28.206Z,6.20
2022-08-02T06:41:59.101Z,6.00
2022-08-02T06:47:13.249Z,6.20
2022-08-02T06:49:52.361Z,6.07
2022-08-02T06:52:27.362Z,6.13
2022-08-02T06:54:56.973Z,6.50
2022-08-02T06:57:23.806Z,6.57
2022-08-02T06:59:50.432Z,6.50
2022-08-02T07:02:17.183Z,6.20
2022-08-02T07:04:43.895Z,6.57
2022-08-02T07:07:10.619Z,6.47
2022-08-02T07:09:37.401Z,6.20
2022-08-02T07:12:04.476Z,6.40
2022-08-02T07:14:31.258Z,6.77
2022-08-02T07:16:59.021Z,6.47
2022-08-02T07:19:37.367Z,6.10
2022-08-02T07:22:05.357Z,6.27
2022-08-02T07:24:32.024Z,6.43
2022-08-02T07:27:11.136Z,7.13
2022-08-02T07:29:46.248Z,6.27
2022-08-02T07:32:22.845Z,6.17
2022-08-02T07:34:51.295Z,6.30
2022-08-02T07:37:55.356Z,5.87
2022-08-02T07:40:25.431Z,5.90
2022-08-02T07:42:57.986Z,5.87
2022-08-02T07:45:30.332Z,5.50
2022-08-02T07:47:57.153Z,5.40
2022-08-02T07:50:23.999Z,5.33
2022-08-02T07:52:57.375Z,4.70
2022-08-02T07:55:39.095Z,4.80
2022-08-02T07:58:07.288Z,4.70
2022-08-02T08:00:38.840Z,4.40
2022-08-02T08:03:11.018Z,5.13
2022-08-02T08:05:37.740Z,4.80
2022-08-02T08:08:06.110Z,4.80
2022-08-02T08:10:32.886Z,5.13
2022-08-02T08:12:59.501Z,4.37
2022-08-02T08:15:26.185Z,4.80
2022-08-02T08:17:52.874Z,4.83
2022-08-02T08:20:19.532Z,4.80
2022-08-02T08:22:46.439Z,4.77
2022-08-02T08:25:13.146Z,4.90
2022-08-02T08:27:52.176Z,5.00
2022-08-02T08:30:20.377Z,4.50
2022-08-02T08:32:47.158Z,5.33
2022-08-02T08:35:14.082Z,5.87
2022-08-02T08:37:40.979Z,6.50
2022-08-02T08:40:10.154Z,4.80
2022-08-02T08:42:38.909Z,6.40
2022-08-02T08:45:06.442Z,6.53
2022-08-02T08:47:42.816Z,6.20
2022-08-02T08:50:25.137Z,6.27
2022-08-02T08:52:58.102Z,5.90
2022-08-02T08:55:26.374Z,6.23
2022-08-02T08:57:54.114Z,6.23
2022-08-02T09:00:20.843Z,5.27
2022-08-02T09:02:47.618Z,4.60
2022-08-02T09:05:16.743Z,4.83
2022-08-02T09:07:45.293Z,4.77
2022-08-02T09:10:33.829Z,4.80
2022-08-02T09:13:38.995Z,4.80
2022-08-02T09:16:14.192Z,4.87
2022-08-02T09:18:46.961Z,4.32
2022-08-02T09:21:15.903Z,4.22
2022-08-02T09:23:47.141Z,3.90
2022-08-02T09:26:16.386Z,3.95
2022-08-02T09:28:46.231Z,3.90
2022-08-02T09:31:20.685Z,5.10
2022-08-02T09:33:55.042Z,5.25
2022-08-02T09:36:22.202Z,4.22
2022-08-02T09:39:02.099Z,4.07
2022-08-02T09:41:33.989Z,4.10
2022-08-02T09:44:05.285Z,4.20
2022-08-02T09:46:44.089Z,3.78
2022-08-02T09:49:16.687Z,4.35
2022-08-02T09:51:46.886Z,3.75
2022-08-02T09:54:40.145Z,3.25
2022-08-02T09:57:07.511Z,4.13
2022-08-02T09:59:34.487Z,4.00
2022-08-02T10:02:04.076Z,3.83
2022-08-02T10:04:34.592Z,4.10
2022-08-02T10:07:19.966Z,3.75
2022-08-02T10:09:49.708Z,3.53
2022-08-02T10:12:16.825Z,3.17
2022-08-02T10:14:44.063Z,3.15
2022-08-02T10:17:10.989Z,3.20
2022-08-02T10:20:00.319Z,3.10
2022-08-02T10:22:25.496Z,3.10
2022-08-02T10:24:52.903Z,3.47
2022-08-02T10:27:20.831Z,3.17
2022-08-02T10:29:54.392Z,2.65
2022-08-02T10:32:33.457Z,2.78
2022-08-02T10:35:18.876Z,2.63
2022-08-02T10:37:55.158Z,2.60
2022-08-02T10:40:26.693Z,2.90
2022-08-02T10:42:54.880Z,2.40
2022-08-02T10:45:22.943Z,2.40
2022-08-02T10:48:09.522Z,2.78
2022-08-02T10:51:08.189Z,2.60
2022-08-02T10:53:36.977Z,3.10
2022-08-02T10:56:06.031Z,2.60
2022-08-02T10:58:36.119Z,2.67
2022-08-02T11:01:38.690Z,2.40
2022-08-02T11:04:10.544Z,2.38
2022-08-02T11:07:14.366Z,2.40
2022-08-02T11:09:42.575Z,2.72
2022-08-02T11:12:15.043Z,2.40
2022-08-02T11:14:44.620Z,2.40
2022-08-02T11:17:19.393Z,2.40
2022-08-02T11:20:12.169Z,2.40
2022-08-02T11:22:43.330Z,2.50
2022-08-02T11:26:02.600Z,2.53
2022-08-02T11:28:25.294Z,3.00
2022-08-02T11:31:00.172Z,2.63
2022-08-02T11:33:34.180Z,2.83
2022-08-02T11:36:06.270Z,2.20
2022-08-02T11:38:33.174Z,2.40
2022-08-02T11:41:00.290Z,2.80
2022-08-02T11:43:33.139Z,2.45
2022-08-02T11:46:13.201Z,2.55
2022-08-02T11:48:41.265Z,2.10
2022-08-02T11:51:17.428Z,2.40
2022-08-02T11:53:52.403Z,2.50
2022-08-02T11:56:26.844Z,2.30
2022-08-02T11:59:08.274Z,2.70
2022-08-02T12:01:45.946Z,2.30
2022-08-02T12:04:18.364Z,2.47
2022-08-02T12:06:53.971Z,2.50
2022-08-02T12:09:20.747Z,2.13
2022-08-02T12:11:53.860Z,2.30
2022-08-02T12:14:20.648Z,2.30
2022-08-02T12:17:07.049Z,2.47
2022-08-02T12:19:34.469Z,2.10
2022-08-02T12:22:12.713Z,2.53
2022-08-02T12:24:41.673Z,2.30
2022-08-02T12:27:08.702Z,2.33
2022-08-02T12:29:58.511Z,2.33
2022-08-02T12:32:26.369Z,2.47
2022-08-02T12:35:08.380Z,2.38
2022-08-02T12:37:36.018Z,2.30
2022-08-02T12:40:25.477Z,2.47
2022-08-02T12:43:01.160Z,2.28
2022-08-02T12:45:40.869Z,2.42
2022-08-02T12:48:09.143Z,2.40
2022-08-02T12:50:37.719Z,2.10
2022-08-02T12:53:11.439Z,2.28
2022-08-02T12:55:59.303Z,2.28
2022-08-02T12:58:30.113Z,2.22
2022-08-02T13:00:59.237Z,2.25
2022-08-02T13:04:09.269Z,2.22
2022-08-02T13:06:41.943Z,2.20
2022-08-02T13:09:00.325Z,2.30
2022-08-02T13:11:27.709Z,2.25
2022-08-02T13:13:54.863Z,1.95
2022-08-02T13:16:30.874Z,2.25
2022-08-02T13:19:01.040Z,2.20
2022-08-02T13:21:41.486Z,2.08
2022-08-02T13:24:32.873Z,1.98
2022-08-02T13:27:33.722Z,2.08
2022-08-02T13:29:51.479Z,2.10
2022-08-02T13:32:18.878Z,2.20
2022-08-02T13:34:46.010Z,2.28
2022-08-02T13:37:15.878Z,2.10
2022-08-02T13:40:00.443Z,1.95
2022-08-02T13:42:33.496Z,2.40
2022-08-02T13:45:00.211Z,2.20
2022-08-02T13:48:03.704Z,2.20
2022-08-02T13:50:26.624Z,2.15
2022-08-02T13:52:55.570Z,2.08
2022-08-02T13:55:22.301Z,2.08
2022-08-02T13:57:53.438Z,2.10
2022-08-02T14:00:35.704Z,2.30
2022-08-02T14:03:04.378Z,2.33
2022-08-02T14:05:39.574Z,2.17
2022-08-02T14:08:21.241Z,2.28
2022-08-02T14:10:48.556Z,2.17
2022-08-02T14:13:15.831Z,2.35
2022-08-02T14:15:43.172Z,2.03
2022-08-02T14:18:10.026Z,2.60
2022-08-02T14:20:38.261Z,2.40
2022-08-02T14:23:07.578Z,2.13
2022-08-02T14:25:35.534Z,1.88
2022-08-02T14:28:03.656Z,2.67
2022-08-02T14:30:30.685Z,2.30
2022-08-02T14:33:01.938Z,1.88
2022-08-02T14:35:28.791Z,2.30
2022-08-02T14:38:16.017Z,2.42
2022-08-02T14:40:45.885Z,2.38
2022-08-02T14:43:32.878Z,2.22
2022-08-02T14:46:00.122Z,2.15
2022-08-02T14:48:26.962Z,2.17
2022-08-02T14:50:53.821Z,2.08
2022-08-02T14:53:20.647Z,1.90
2022-08-02T14:55:49.671Z,2.10
2022-08-02T14:58:16.728Z,2.15
2022-08-02T15:00:43.921Z,2.30
2022-08-02T15:03:11.590Z,2.00
2022-08-02T15:05:44.250Z,2.00
2022-08-02T15:08:10.996Z,1.70
2022-08-02T15:10:40.090Z,1.90
2022-08-02T15:13:22.926Z,1.70
2022-08-02T15:15:50.575Z,1.70
2022-08-02T15:18:17.397Z,1.63
2022-08-02T15:20:57.327Z,1.70
2022-08-02T15:23:25.055Z,2.00
2022-08-02T15:26:06.352Z,1.90
2022-08-02T15:28:33.328Z,1.55
2022-08-02T15:31:00.064Z,1.70
2022-08-02T15:33:27.230Z,1.98
2022-08-02T15:35:55.743Z,1.90
2022-08-02T15:38:23.572Z,1.80
2022-08-02T15:40:50.301Z,1.90
2022-08-02T15:43:17.055Z,1.90
2022-08-02T15:45:43.823Z,1.90
2022-08-02T15:48:10.642Z,1.90
